createdAt,value
2018-05-09T00:01:12.745Z,66.20
2018-05-09T00:03:39.901Z,65.70
2018-05-09T00:06:07.081Z,65.50
2018-05-09T00:08:34.252Z,65.20
2018-05-09T00:11:00.755Z,65.10
2018-05-09T00:13:27.204Z,65.20
2018-05-09T00:15:53.740Z,65.30
2018-05-09T00:18:20.876Z,65.70
2018-05-09T00:20:47.303Z,65.70
2018-05-09T00:23:13.825Z,66.10
2018-05-09T00:25:41.097Z,66.60
2018-05-09T00:28:08.361Z,66.30
2018-05-09T00:30:35.560Z,66.30
2018-05-09T00:33:02.003Z,66.20
2018-05-09T00:35:29.177Z,66.30
2018-05-09T00:37:56.347Z,66.50
2018-05-09T00:40:23.514Z,66.70
2018-05-09T00:42:50.699Z,67.10
2018-05-09T00:45:17.167Z,67.00
2018-05-09T00:47:43.604Z,67.40
2018-05-09T00:50:10.836Z,67.70
2018-05-09T00:52:37.953Z,68.00
2018-05-09T00:55:04.415Z,67.90
2018-05-09T00:57:30.838Z,68.00
2018-05-09T00:59:57.230Z,68.20
2018-05-09T01:02:23.691Z,68.30
2018-05-09T01:04:50.230Z,68.50
2018-05-09T01:07:17.385Z,69.20
2018-05-09T01:09:43.947Z,69.10
2018-05-09T01:12:11.113Z,70.30
2018-05-09T01:14:37.523Z,69.50
2018-05-09T01:17:04.017Z,69.80
2018-05-09T01:19:30.427Z,70.30
2018-05-09T01:21:56.960Z,70.40
2018-05-09T01:24:24.234Z,70.90
2018-05-09T01:26:51.510Z,71.20
2018-05-09T01:29:18.068Z,71.20
2018-05-09T01:31:45.213Z,71.90
2018-05-09T01:34:11.656Z,71.90
2018-05-09T01:36:38.153Z,72.50
2018-05-09T01:39:05.352Z,73.50
2018-05-09T01:41:31.804Z,73.50
2018-05-09T01:43:58.223Z,73.90
2018-05-09T01:46:26.068Z,74.70
2018-05-09T01:48:52.583Z,74.70
2018-05-09T01:51:19.141Z,74.90
2018-05-09T01:53:45.609Z,75.10
2018-05-09T01:56:12.035Z,75.30
2018-05-09T01:58:39.189Z,76.00
2018-05-09T02:01:06.265Z,76.00
2018-05-09T02:03:32.661Z,76.20
2018-05-09T02:05:59.147Z,76.60
2018-05-09T02:08:25.516Z,77.10
2018-05-09T02:10:51.886Z,77.30
2018-05-09T02:13:19.087Z,78.10
2018-05-09T02:15:46.260Z,78.40
2018-05-09T02:18:13.468Z,78.90
2018-05-09T02:20:39.993Z,78.90
2018-05-09T02:23:06.396Z,79.30
2018-05-09T02:25:32.800Z,79.60
2018-05-09T02:28:00.002Z,80.30
2018-05-09T02:30:26.416Z,80.30
2018-05-09T02:32:54.202Z,80.70
2018-05-09T02:35:21.388Z,81.00
2018-05-09T02:37:48.558Z,81.20
2018-05-09T02:40:15.019Z,81.20
2018-05-09T02:42:41.516Z,81.50
2018-05-09T02:45:07.942Z,81.70
2018-05-09T02:47:34.388Z,82.10
2018-05-09T02:50:01.721Z,82.70
2018-05-09T02:52:27.996Z,82.70
2018-05-09T02:54:54.575Z,83.00
2018-05-09T02:57:21.766Z,83.50
2018-05-09T02:59:48.203Z,83.50
2018-05-09T03:02:15.372Z,83.90
2018-05-09T03:04:42.573Z,84.10
2018-05-09T03:07:08.981Z,84.00
2018-05-09T03:09:36.125Z,84.30
2018-05-09T03:12:04.019Z,85.00
2018-05-09T03:14:30.425Z,84.90
2018-05-09T03:16:56.978Z,85.30
2018-05-09T03:19:23.426Z,85.60
2018-05-09T03:21:50.603Z,86.20
2018-05-09T03:24:17.776Z,86.30
2018-05-09T03:26:44.950Z,86.60
2018-05-09T03:29:13.837Z,86.60
2018-05-09T03:31:40.338Z,86.60
2018-05-09T03:34:06.793Z,86.30
2018-05-09T03:36:33.195Z,87.40
2018-05-09T03:38:59.687Z,87.90
2018-05-09T03:41:26.839Z,89.20
2018-05-09T03:43:53.286Z,89.20
2018-05-09T03:46:20.429Z,90.00
2018-05-09T03:48:46.873Z,89.90
2018-05-09T03:51:13.403Z,89.90
2018-05-09T03:53:39.905Z,89.80
2018-05-09T03:56:06.415Z,89.60
2018-05-09T03:58:32.889Z,89.40
2018-05-09T04:00:59.381Z,89.30
2018-05-09T04:03:38.159Z,89.20
2018-05-09T04:06:16.643Z,89.10
2018-05-09T04:08:55.414Z,89.00
2018-05-09T04:11:22.560Z,88.90
2018-05-09T04:13:48.963Z,88.90
2018-05-09T04:16:15.351Z,88.90
2018-05-09T04:18:41.792Z,88.80
2018-05-09T04:21:08.308Z,88.70
2018-05-09T04:23:35.580Z,88.40
2018-05-09T04:26:01.998Z,88.40
2018-05-09T04:28:28.492Z,88.00
2018-05-09T04:30:55.708Z,86.60
2018-05-09T04:33:22.229Z,86.50
2018-05-09T04:35:48.671Z,86.50
2018-05-09T04:38:15.835Z,86.20
2018-05-09T04:40:42.272Z,86.10
2018-05-09T04:43:08.870Z,83.10
2018-05-09T04:45:35.292Z,77.00
2018-05-09T04:48:01.697Z,72.50
2018-05-09T04:50:28.124Z,67.90
2018-05-09T04:52:55.259Z,64.10
2018-05-09T04:55:21.724Z,64.10
2018-05-09T04:57:48.325Z,64.70
2018-05-09T05:00:14.801Z,66.00
2018-05-09T05:02:41.248Z,67.50
2018-05-09T05:05:07.793Z,68.70
2018-05-09T05:07:34.946Z,70.60
2018-05-09T05:10:01.516Z,70.60
2018-05-09T05:12:27.961Z,71.00
2018-05-09T05:14:54.397Z,71.60
2018-05-09T05:17:21.418Z,72.70
2018-05-09T05:19:47.845Z,74.00
2018-05-09T05:22:15.050Z,75.90
2018-05-09T05:24:41.593Z,75.70
2018-05-09T05:27:08.068Z,76.30
2018-05-09T05:29:35.324Z,77.30
2018-05-09T05:32:01.747Z,77.30
2018-05-09T05:34:28.168Z,71.20
2018-05-09T05:36:54.627Z,62.60
2018-05-09T05:39:21.124Z,55.60
2018-05-09T05:41:47.845Z,50.70
2018-05-09T05:44:14.256Z,46.60
2018-05-09T05:46:41.543Z,40.50
2018-05-09T05:49:08.069Z,40.40
2018-05-09T05:51:34.576Z,38.80
2018-05-09T05:54:01.059Z,39.10
2018-05-09T05:56:27.980Z,38.40
2018-05-09T05:58:54.486Z,39.40
2018-05-09T06:01:20.931Z,41.30
2018-05-09T06:03:47.382Z,44.00
2018-05-09T06:06:13.805Z,46.50
2018-05-09T06:08:40.987Z,50.70
2018-05-09T06:11:07.414Z,50.70
2018-05-09T06:13:34.603Z,53.30
2018-05-09T06:16:01.772Z,54.80
2018-05-09T06:18:29.258Z,56.60
2018-05-09T06:20:56.328Z,56.50
2018-05-09T06:23:23.520Z,58.70
2018-05-09T06:25:50.042Z,58.70
2018-05-09T06:28:17.221Z,61.10
2018-05-09T06:30:44.381Z,61.70
2018-05-09T06:33:10.811Z,61.60
2018-05-09T06:35:37.263Z,61.50
2018-05-09T06:38:03.875Z,57.80
2018-05-09T06:40:30.433Z,52.90
2018-05-09T06:42:57.611Z,42.10
2018-05-09T06:45:24.063Z,42.00
2018-05-09T06:47:51.231Z,35.30
2018-05-09T06:50:18.422Z,33.10
2018-05-09T06:52:44.842Z,33.00
2018-05-09T06:55:11.270Z,31.70
2018-05-09T06:57:37.696Z,30.90
2018-05-09T07:00:04.251Z,29.70
2018-05-09T07:02:30.598Z,29.50
2018-05-09T07:04:57.034Z,28.40
2018-05-09T07:07:24.199Z,27.60
2018-05-09T07:09:51.438Z,27.10
2018-05-09T07:12:17.818Z,27.00
2018-05-09T07:14:45.113Z,26.60
2018-05-09T07:17:12.264Z,26.00
2018-05-09T07:19:38.705Z,26.00
2018-05-09T07:22:05.144Z,25.80
2018-05-09T07:24:31.549Z,25.80
2018-05-09T07:26:58.717Z,25.30
2018-05-09T07:29:26.419Z,25.30
2018-05-09T07:31:52.833Z,25.30
2018-05-09T07:34:19.258Z,24.90
2018-05-09T07:36:45.642Z,24.80
2018-05-09T07:39:12.817Z,24.30
2018-05-09T07:41:39.412Z,24.30
2018-05-09T07:44:06.493Z,24.30
2018-05-09T07:46:33.036Z,23.60
2018-05-09T07:49:00.216Z,23.70
2018-05-09T07:51:26.676Z,23.20
2018-05-09T07:53:53.086Z,22.70
2018-05-09T07:56:19.476Z,23.10
2018-05-09T07:58:46.636Z,23.70
2018-05-09T08:01:13.828Z,23.60
2018-05-09T08:03:40.270Z,23.60
2018-05-09T08:06:06.751Z,24.10
2018-05-09T08:08:33.292Z,24.20
2018-05-09T08:11:00.492Z,24.70
2018-05-09T08:13:26.922Z,24.70
2018-05-09T08:15:54.194Z,26.60
2018-05-09T08:18:21.378Z,26.30
2018-05-09T08:20:47.779Z,26.30
2018-05-09T08:23:14.220Z,26.80
2018-05-09T08:25:40.659Z,26.70
2018-05-09T08:28:07.136Z,27.60
2018-05-09T08:30:33.753Z,27.90
2018-05-09T08:33:00.943Z,30.70
2018-05-09T08:35:27.367Z,30.70
2018-05-09T08:37:54.527Z,34.70
2018-05-09T08:40:21.025Z,34.60
2018-05-09T08:42:47.451Z,36.10
2018-05-09T08:45:14.645Z,37.50
2018-05-09T08:47:41.043Z,37.10
2018-05-09T08:50:07.551Z,37.90
2018-05-09T08:52:34.826Z,38.70
2018-05-09T08:55:02.023Z,39.20
2018-05-09T08:57:28.456Z,39.20
2018-05-09T08:59:55.731Z,40.50
2018-05-09T09:02:22.891Z,41.20
2018-05-09T09:04:50.641Z,41.50
2018-05-09T09:07:17.070Z,41.50
2018-05-09T09:09:43.476Z,41.40
2018-05-09T09:12:10.056Z,42.50
2018-05-09T09:14:37.228Z,42.50
2018-05-09T09:17:03.796Z,42.50
2018-05-09T09:19:30.346Z,42.50
2018-05-09T09:21:57.516Z,42.00
2018-05-09T09:24:24.686Z,42.10
2018-05-09T09:26:51.153Z,42.20
2018-05-09T09:29:17.646Z,42.90
2018-05-09T09:31:44.742Z,42.50
2018-05-09T09:34:11.232Z,42.50
2018-05-09T09:36:38.399Z,42.50
2018-05-09T09:39:05.577Z,43.00
2018-05-09T09:41:32.026Z,43.00
2018-05-09T09:43:59.159Z,43.10
2018-05-09T09:46:25.536Z,43.00
2018-05-09T09:48:51.929Z,43.80
2018-05-09T09:51:18.474Z,44.20
2018-05-09T09:53:45.033Z,44.50
2018-05-09T09:56:12.308Z,45.60
2018-05-09T09:58:38.862Z,45.60
2018-05-09T10:01:06.206Z,45.40
2018-05-09T10:03:34.189Z,46.30
2018-05-09T10:06:01.503Z,46.80
2018-05-09T10:08:28.986Z,46.50
2018-05-09T10:10:55.428Z,46.50
2018-05-09T10:13:22.594Z,46.10
2018-05-09T10:15:49.762Z,46.10
2018-05-09T10:18:16.228Z,46.10
2018-05-09T10:20:43.421Z,45.40
2018-05-09T10:23:09.968Z,45.50
2018-05-09T10:25:36.305Z,44.50
2018-05-09T10:28:02.735Z,44.70
2018-05-09T10:30:29.629Z,45.00
2018-05-09T10:32:56.018Z,45.50
2018-05-09T10:35:22.447Z,45.40
2018-05-09T10:37:49.843Z,44.60
2018-05-09T10:40:16.371Z,44.50
2018-05-09T10:42:42.953Z,44.30
2018-05-09T10:45:09.437Z,45.10
2018-05-09T10:47:35.945Z,45.80
2018-05-09T10:50:02.528Z,45.80
2018-05-09T10:52:29.050Z,45.30
2018-05-09T10:54:55.540Z,45.30
2018-05-09T10:57:22.719Z,44.60
2018-05-09T10:59:49.173Z,44.50
2018-05-09T11:02:15.624Z,45.00
2018-05-09T11:04:42.806Z,44.90
2018-05-09T11:07:09.273Z,44.80
2018-05-09T11:09:35.760Z,45.90
2018-05-09T11:12:02.983Z,44.50
2018-05-09T11:14:30.261Z,45.60
2018-05-09T11:16:56.827Z,45.60
2018-05-09T11:19:23.334Z,45.40
2018-05-09T11:21:49.771Z,45.60
2018-05-09T11:24:16.285Z,45.30
2018-05-09T11:26:42.682Z,45.90
2018-05-09T11:29:09.117Z,45.30
2018-05-09T11:31:35.663Z,45.50
2018-05-09T11:34:02.165Z,45.60
2018-05-09T11:36:28.627Z,45.80
2018-05-09T11:38:55.080Z,45.80
2018-05-09T11:41:21.641Z,45.90
2018-05-09T11:43:48.801Z,46.10
2018-05-09T11:46:15.229Z,45.80
2018-05-09T11:48:41.678Z,45.50
2018-05-09T11:51:08.171Z,46.20
2018-05-09T11:53:34.602Z,46.80
2018-05-09T11:56:01.020Z,46.70
2018-05-09T11:58:27.428Z,47.20
2018-05-09T12:00:53.965Z,47.70
2018-05-09T12:03:20.415Z,46.60
2018-05-09T12:05:46.828Z,47.00
2018-05-09T12:08:13.821Z,46.30
2018-05-09T12:10:41.072Z,46.60
2018-05-09T12:13:07.450Z,46.50
2018-05-09T12:15:34.693Z,47.20
2018-05-09T12:18:01.193Z,47.20
2018-05-09T12:20:28.468Z,47.90
2018-05-09T12:22:55.641Z,47.20
2018-05-09T12:25:22.255Z,47.20
2018-05-09T12:27:48.679Z,46.70
2018-05-09T12:30:15.117Z,47.30
2018-05-09T12:32:41.561Z,46.20
2018-05-09T12:35:08.703Z,44.50
2018-05-09T12:37:35.201Z,45.80
2018-05-09T12:40:01.753Z,45.90
2018-05-09T12:42:29.145Z,46.00
2018-05-09T12:44:55.568Z,46.00
2018-05-09T12:47:22.865Z,46.70
2018-05-09T12:49:49.395Z,46.70
2018-05-09T12:52:16.565Z,46.60
2018-05-09T12:54:42.974Z,46.70
2018-05-09T12:57:09.370Z,46.40
2018-05-09T12:59:35.779Z,46.90
2018-05-09T13:03:51.135Z,46.50
2018-05-09T13:06:18.351Z,46.10
2018-05-09T13:08:44.843Z,46.10
2018-05-09T13:11:12.043Z,47.10
2018-05-09T13:13:38.447Z,47.00
2018-05-09T13:16:04.888Z,47.10
2018-05-09T13:18:31.367Z,47.30
2018-05-09T13:20:57.788Z,46.80
2018-05-09T13:23:24.254Z,47.20
2018-05-09T13:25:50.760Z,46.80
2018-05-09T13:28:17.208Z,46.50
2018-05-09T13:30:44.244Z,45.40
2018-05-09T13:33:10.862Z,45.00
2018-05-09T13:35:37.352Z,45.30
2018-05-09T13:38:03.978Z,44.50
2018-05-09T13:40:30.420Z,44.80
2018-05-09T13:42:57.614Z,43.80
2018-05-09T13:45:24.063Z,43.70
2018-05-09T13:47:51.233Z,43.90
2018-05-09T13:50:18.512Z,43.70
2018-05-09T13:52:45.804Z,42.00
2018-05-09T13:55:12.300Z,42.00
2018-05-09T13:57:38.801Z,42.80
2018-05-09T14:00:06.010Z,42.40
2018-05-09T14:02:32.486Z,42.40
2018-05-09T14:04:58.913Z,41.60
2018-05-09T14:07:25.394Z,41.80
2018-05-09T14:09:51.893Z,41.70
2018-05-09T14:12:18.359Z,42.90
2018-05-09T14:14:44.775Z,43.20
2018-05-09T14:17:11.210Z,43.20
2018-05-09T14:19:37.617Z,42.80
2018-05-09T14:22:04.905Z,41.90
2018-05-09T14:24:31.358Z,41.90
2018-05-09T14:26:57.807Z,41.50
2018-05-09T14:29:25.039Z,41.80
2018-05-09T14:31:52.973Z,41.50
2018-05-09T14:34:19.439Z,41.50
2018-05-09T14:36:45.986Z,39.30
2018-05-09T14:39:13.262Z,38.70
2018-05-09T14:41:39.823Z,38.70
2018-05-09T14:44:07.098Z,39.40
2018-05-09T14:46:34.481Z,40.10
2018-05-09T14:49:00.962Z,40.10
2018-05-09T14:51:27.428Z,40.10
2018-05-09T14:53:53.945Z,40.40
2018-05-09T14:56:20.409Z,40.80
2018-05-09T14:58:46.812Z,41.40
2018-05-09T15:02:35.031Z,42.70
2018-05-09T15:05:01.506Z,43.40
2018-05-09T15:07:28.046Z,43.00
2018-05-09T15:09:55.215Z,42.60
2018-05-09T15:12:22.442Z,42.60
2018-05-09T15:14:48.904Z,42.60
2018-05-09T15:17:15.346Z,40.90
2018-05-09T15:19:41.900Z,41.10
2018-05-09T15:22:08.360Z,40.60
2018-05-09T15:24:34.876Z,41.50
2018-05-09T15:27:02.150Z,44.60
2018-05-09T15:29:29.355Z,44.00
2018-05-09T15:31:55.813Z,44.00
2018-05-09T15:34:22.338Z,44.30
2018-05-09T15:36:48.770Z,44.30
2018-05-09T15:39:15.224Z,44.60
2018-05-09T15:41:41.684Z,45.80
2018-05-09T15:44:08.874Z,47.00
2018-05-09T15:46:36.085Z,47.90
2018-05-09T15:49:02.610Z,47.90
2018-05-09T15:51:29.788Z,49.10
2018-05-09T15:53:56.341Z,49.10
2018-05-09T15:56:23.491Z,49.30
2018-05-09T15:58:50.737Z,49.80
2018-05-09T16:01:17.181Z,49.70
2018-05-09T16:03:43.666Z,50.30
2018-05-09T16:06:10.111Z,50.70
2018-05-09T16:08:36.602Z,51.10
2018-05-09T16:11:04.036Z,51.70
2018-05-09T16:13:31.373Z,51.50
2018-05-09T16:15:57.923Z,51.50
2018-05-09T16:18:25.307Z,51.30
2018-05-09T16:20:51.832Z,51.20
2018-05-09T16:23:18.421Z,51.10
2018-05-09T16:25:45.625Z,51.80
2018-05-09T16:28:12.153Z,51.80
2018-05-09T16:30:38.615Z,51.30
2018-05-09T16:33:05.143Z,51.70
2018-05-09T16:35:31.622Z,52.30
2018-05-09T16:37:58.998Z,52.50
2018-05-09T16:40:26.218Z,53.20
2018-05-09T16:42:52.654Z,53.20
2018-05-09T16:45:19.148Z,54.50
2018-05-09T16:47:45.708Z,55.50
2018-05-09T16:50:12.772Z,55.40
2018-05-09T16:52:39.697Z,56.00
2018-05-09T16:55:06.343Z,57.00
2018-05-09T16:57:32.759Z,57.50
2018-05-09T16:59:59.849Z,58.30
2018-05-09T17:02:26.228Z,58.70
2018-05-09T17:04:52.796Z,59.30
2018-05-09T17:07:19.376Z,60.30
2018-05-09T17:09:45.799Z,61.30
2018-05-09T17:12:12.233Z,61.70
2018-05-09T17:14:39.442Z,63.40
2018-05-09T17:17:05.847Z,63.30
2018-05-09T17:19:33.027Z,64.70
2018-05-09T17:22:18.858Z,65.70
2018-05-09T17:24:46.072Z,66.00
2018-05-09T17:27:12.574Z,66.00
2018-05-09T17:29:40.253Z,66.10
2018-05-09T17:32:06.814Z,66.70
2018-05-09T17:34:33.376Z,67.10
2018-05-09T17:36:59.812Z,67.30
2018-05-09T17:39:26.955Z,66.00
2018-05-09T17:41:53.401Z,66.70
2018-05-09T17:44:19.846Z,67.30
2018-05-09T17:46:46.310Z,67.90
2018-05-09T17:49:12.750Z,66.80
2018-05-09T17:51:39.194Z,65.50
2018-05-09T17:54:05.740Z,65.70
2018-05-09T17:56:32.188Z,66.50
2018-05-09T17:58:59.452Z,66.20
2018-05-09T18:01:25.908Z,66.20
2018-05-09T18:03:52.407Z,67.40
2018-05-09T18:06:18.944Z,67.00
2018-05-09T18:08:45.450Z,67.30
2018-05-09T18:11:11.964Z,67.20
2018-05-09T18:13:38.412Z,67.30
2018-05-09T18:16:04.906Z,67.90
2018-05-09T18:18:31.368Z,68.30
2018-05-09T18:20:57.876Z,68.70
2018-05-09T18:23:25.262Z,69.80
2018-05-09T18:25:51.836Z,69.80
2018-05-09T18:28:18.484Z,70.50
2018-05-09T18:30:45.041Z,70.60
2018-05-09T18:33:11.699Z,71.10
2018-05-09T18:35:38.197Z,72.00
2018-05-09T18:38:04.715Z,72.90
2018-05-09T18:40:32.457Z,74.40
2018-05-09T18:42:59.161Z,74.40
2018-05-09T18:45:27.048Z,75.00
2018-05-09T18:47:54.432Z,76.30
2018-05-09T18:50:21.806Z,76.30
2018-05-09T18:52:48.364Z,77.10
2018-05-09T18:55:14.921Z,77.40
2018-05-09T18:57:42.196Z,78.70
2018-05-09T19:00:08.854Z,78.70
2018-05-09T19:02:35.397Z,79.50
2018-05-09T19:05:02.728Z,81.10
2018-05-09T19:07:31.191Z,81.00
2018-05-09T19:09:57.753Z,81.80
2018-05-09T19:12:26.598Z,82.30
2018-05-09T19:14:53.132Z,82.90
2018-05-09T19:17:19.671Z,83.40
2018-05-09T19:19:48.282Z,84.50
2018-05-09T19:22:16.323Z,84.50
2018-05-09T19:24:42.929Z,85.00
2018-05-09T19:27:10.615Z,85.30
2018-05-09T19:29:37.172Z,86.00
2018-05-09T19:32:04.582Z,86.50
2018-05-09T19:34:31.313Z,86.50
2018-05-09T19:36:58.771Z,87.00
2018-05-09T19:39:25.225Z,87.50
2018-05-09T19:41:52.537Z,88.20
2018-05-09T19:44:19.285Z,88.20
2018-05-09T19:46:46.865Z,88.40
2018-05-09T19:49:13.369Z,88.40
2018-05-09T19:51:39.894Z,88.50
2018-05-09T19:54:06.335Z,88.30
2018-05-09T19:56:33.616Z,88.30
2018-05-09T19:59:00.087Z,88.30
2018-05-09T20:01:26.509Z,88.30
2018-05-09T20:03:53.728Z,89.10
2018-05-09T20:06:20.260Z,88.70
2018-05-09T20:08:47.424Z,89.00
2018-05-09T20:11:14.190Z,89.10
2018-05-09T20:13:40.676Z,89.40
2018-05-09T20:16:09.224Z,89.30
2018-05-09T20:18:36.016Z,89.30
2018-05-09T20:21:02.527Z,89.30
2018-05-09T20:23:28.991Z,89.20
2018-05-09T20:25:56.240Z,89.00
2018-05-09T20:28:22.713Z,89.00
2018-05-09T20:30:55.161Z,88.90
2018-05-09T20:33:21.710Z,89.10
2018-05-09T20:35:48.983Z,89.00
2018-05-09T20:38:15.437Z,89.10
2018-05-09T20:40:42.713Z,88.10
2018-05-09T20:43:10.891Z,87.90
2018-05-09T20:45:37.877Z,87.90
2018-05-09T20:48:04.436Z,88.00
2018-05-09T20:50:31.579Z,88.20
2018-05-09T20:52:58.770Z,88.40
2018-05-09T20:55:27.032Z,88.60
2018-05-09T20:57:53.635Z,88.50
2018-05-09T21:00:20.299Z,88.70
2018-05-09T21:02:46.957Z,88.90
2018-05-09T21:05:14.227Z,89.20
2018-05-09T21:07:53.574Z,89.40
2018-05-09T21:10:20.233Z,89.40
2018-05-09T21:12:47.857Z,89.80
2018-05-09T21:15:14.388Z,89.80
2018-05-09T21:17:40.867Z,90.00
2018-05-09T21:20:07.610Z,90.10
2018-05-09T21:22:35.231Z,90.20
2018-05-09T21:25:01.940Z,90.30
2018-05-09T21:27:28.512Z,90.40
2018-05-09T21:29:55.033Z,90.50
2018-05-09T21:32:21.548Z,90.60
2018-05-09T21:34:48.076Z,90.70
2018-05-09T21:37:14.640Z,90.70
2018-05-09T21:39:41.086Z,90.80
2018-05-09T21:42:07.526Z,90.80
2018-05-09T21:44:34.922Z,91.10
2018-05-09T21:47:01.433Z,91.00
2018-05-09T21:49:27.916Z,91.10
2018-05-09T21:51:55.125Z,91.60
2018-05-09T21:54:21.665Z,91.60
2018-05-09T21:56:48.222Z,91.70
2018-05-09T21:59:15.458Z,92.10
2018-05-09T22:01:41.959Z,92.10
2018-05-09T22:04:08.470Z,92.20
2018-05-09T22:06:35.082Z,92.40
2018-05-09T22:09:01.536Z,92.50
2018-05-09T22:11:28.086Z,92.70
2018-05-09T22:13:54.522Z,92.80
2018-05-09T22:16:21.106Z,93.30
2018-05-09T22:18:47.683Z,92.80
2018-05-09T22:21:14.323Z,93.10
2018-05-09T22:23:40.880Z,93.00
2018-05-09T22:26:08.101Z,92.80
2018-05-09T22:28:35.099Z,92.80
2018-05-09T22:31:01.558Z,92.90
2018-05-09T22:33:28.070Z,93.10
2018-05-09T22:35:54.595Z,93.20
2018-05-09T22:38:21.780Z,93.40
2018-05-09T22:40:48.195Z,93.30
2018-05-09T22:43:14.656Z,93.50
2018-05-09T22:45:41.848Z,93.80
2018-05-09T22:48:09.126Z,94.20
2018-05-09T22:50:36.294Z,94.40
2018-05-09T22:53:03.441Z,94.40
2018-05-09T22:55:30.640Z,94.70
2018-05-09T22:57:57.800Z,95.10
2018-05-09T23:00:25.041Z,95.30
2018-05-09T23:02:51.445Z,95.30
2018-05-09T23:05:18.622Z,95.80
2018-05-09T23:07:45.032Z,95.80
2018-05-09T23:10:12.181Z,97.00
2018-05-09T23:12:38.634Z,97.00
2018-05-09T23:15:05.034Z,97.30
2018-05-09T23:17:32.199Z,97.20
2018-05-09T23:20:00.530Z,97.40
2018-05-09T23:22:27.935Z,97.10
2018-05-09T23:24:54.364Z,97.20
2018-05-09T23:27:20.769Z,97.20
2018-05-09T23:29:47.147Z,97.20
2018-05-09T23:32:13.574Z,97.20
2018-05-09T23:34:40.015Z,97.20
2018-05-09T23:37:06.438Z,97.20
2018-05-09T23:39:32.992Z,97.00
2018-05-09T23:42:00.208Z,96.60
2018-05-09T23:44:26.724Z,96.60
2018-05-09T23:46:53.998Z,96.50
2018-05-09T23:49:20.920Z,96.50
2018-05-09T23:51:47.425Z,96.30
2018-05-09T23:54:13.882Z,96.30
2018-05-09T23:56:40.346Z,96.10
2018-05-09T23:59:06.774Z,96.00
